Terminal Aerodrome Forecast
Issued by NWS

Home | Current Version | Previous Version | Text Only | Print | Product List | Glossary On
Versions: 1 2 3 4 5 6 7 8 9 10 11 12 13 14 15 16
000
FTUS45 KABQ 191404 AAB
TAFGUP
TAF AMD
KGUP 191404Z 1914/2012 22010KT P6SM BKN040 OVC100
      TEMPO 1914/1916 OVC015
     FM191700 23014G24KT P6SM BKN040 OVC100
     FM191900 24015G25KT 6SM -SHRA BR OVC035
     FM200200 24011KT P6SM VCSH OVC020
     FM200600 23011KT 4SM BR OVC015=

USA.gov is the U.S. government's official web portal to all federal, state and local government web resources and services.